Ana Sayfa
METAR-TAF:

METAR-TAF

Havaalanları :

Buriram, Tayland

Enlem: 15-13-46N, Boylam: 103-15-04E, yükseklik: 180 m

Güncel hava durumu gözlemi

Rapor saat 13:00 UTC de 5 saat ve 33 dakika önce yapıldı.
Rüzgar doğu/güneydoğudan 2 kt
Sıcaklık 18°C
Nem 77%
Basınç 1014 hPa
Görüş mesafesi: 8000 m

METAR: VTUO 101300Z 11002KT 8000 NSC 18/14 Q1014 NOSIG

Saat: 01:33 (18:33 UTC)

Tahmin

Rapor saat 17:00 UTC de 1 saat ve 33 dakika önce yapıldı.
Ayın 10'si saat 18 UTC'den ayın 11'si saat 18 UTC'ye kadar geçerli Tahmin
Rüzgar kuzeydoğudan 5 kt
Görüş mesafesi: 8000 m
Dönüşüyor
ayın 10'si saat 20 UTC'den ayın 10'si saat 22 UTC'ye kadar
Görüş mesafesi: 3000 m
Pus
Dönüşüyor
ayın 11'si saat 01 UTC'den ayın 11'si saat 03 UTC'ye kadar
Görüş mesafesi: 9000 m

TAF: VTUO 101700Z 1018/1118 05005KT 8000 NSC BECMG 1020/1022 3000 BR BECMG 1101/1103 9000 NSW

4.000'den fazla havaalanı için hava durumu gözlemleri ve tahminleri (METAR ve TAF raporları).

Kullanılabilir istasyonlar harita üzerinde sarı ve kırmızı noktalarla gösterilir.

İstasyonun adını görmek için fareyi noktanın üzerinde gezdirin.

Sonrasında hava gözlem ve tahminlerini görmek için tıklayın.

Haritayı değiştirmek için: yaklaştırmak için siyah artı işaretli yeşil düğmeye ve uzaklaştırmak için de eksi işaretli düğmeye hızla tıklayın; bitişik haritalar için yeşil okları kullanın.


METAR-TAF: